sensor_id;sensor_type;location;lat;lon;timestamp;temperature;humidity
3648;DHT22;1840;48.892;15.312;2023-05-07T00:01:52;7.90;99.90
3648;DHT22;1840;48.892;15.312;2023-05-07T00:04:20;7.90;99.90
3648;DHT22;1840;48.892;15.312;2023-05-07T00:06:48;7.80;99.90
3648;DHT22;1840;48.892;15.312;2023-05-07T00:09:17;7.90;99.90
3648;DHT22;1840;48.892;15.312;2023-05-07T00:11:45;7.70;99.90
3648;DHT22;1840;48.892;15.312;2023-05-07T00:14:13;7.70;99.90
3648;DHT22;1840;48.892;15.312;2023-05-07T00:16:41;7.80;99.90
3648;DHT22;1840;48.892;15.312;2023-05-07T00:19:09;7.90;99.90
3648;DHT22;1840;48.892;15.312;2023-05-07T00:21:37;7.90;99.90
3648;DHT22;1840;48.892;15.312;2023-05-07T00:24:05;7.90;99.90
3648;DHT22;1840;48.892;15.312;2023-05-07T00:26:35;8.00;99.90
3648;DHT22;1840;48.892;15.312;2023-05-07T00:29:03;8.00;99.90
3648;DHT22;1840;48.892;15.312;2023-05-07T00:31:31;8.00;99.90
3648;DHT22;1840;48.892;15.312;2023-05-07T00:33:59;7.90;99.90
3648;DHT22;1840;48.892;15.312;2023-05-07T00:36:27;7.90;99.90
3648;DHT22;1840;48.892;15.312;2023-05-07T00:38:58;7.70;99.90
3648;DHT22;1840;48.892;15.312;2023-05-07T00:41:26;7.60;99.90
3648;DHT22;1840;48.892;15.312;2023-05-07T00:43:56;7.50;99.90
3648;DHT22;1840;48.892;15.312;2023-05-07T00:46:24;7.40;99.90
3648;DHT22;1840;48.892;15.312;2023-05-07T00:48:53;7.50;99.90
3648;DHT22;1840;48.892;15.312;2023-05-07T00:51:22;7.50;99.90
3648;DHT22;1840;48.892;15.312;2023-05-07T00:53:50;7.40;99.90
3648;DHT22;1840;48.892;15.312;2023-05-07T00:56:19;7.40;99.90
3648;DHT22;1840;48.892;15.312;2023-05-07T00:58:47;7.50;99.90
3648;DHT22;1840;48.892;15.312;2023-05-07T01:01:17;7.50;99.90
3648;DHT22;1840;48.892;15.312;2023-05-07T01:03:45;7.50;99.90
3648;DHT22;1840;48.892;15.312;2023-05-07T01:06:13;7.50;99.90
3648;DHT22;1840;48.892;15.312;2023-05-07T01:08:45;7.50;99.90
3648;DHT22;1840;48.892;15.312;2023-05-07T01:11:13;7.60;99.90
3648;DHT22;1840;48.892;15.312;2023-05-07T01:13:41;7.60;99.90
3648;DHT22;1840;48.892;15.312;2023-05-07T01:16:10;7.40;99.90
3648;DHT22;1840;48.892;15.312;2023-05-07T01:18:39;7.30;99.90
3648;DHT22;1840;48.892;15.312;2023-05-07T01:21:11;7.30;99.90
3648;DHT22;1840;48.892;15.312;2023-05-07T01:23:41;7.30;99.90
3648;DHT22;1840;48.892;15.312;2023-05-07T01:26:09;7.30;99.90
3648;DHT22;1840;48.892;15.312;2023-05-07T01:28:37;7.30;99.90
3648;DHT22;1840;48.892;15.312;2023-05-07T01:31:06;7.30;99.90
3648;DHT22;1840;48.892;15.312;2023-05-07T01:33:36;7.30;99.90
3648;DHT22;1840;48.892;15.312;2023-05-07T01:36:06;7.30;99.90
3648;DHT22;1840;48.892;15.312;2023-05-07T01:38:36;7.30;99.90
3648;DHT22;1840;48.892;15.312;2023-05-07T01:41:06;7.40;99.90
3648;DHT22;1840;48.892;15.312;2023-05-07T01:43:35;7.40;99.90
3648;DHT22;1840;48.892;15.312;2023-05-07T01:46:03;7.40;99.90
3648;DHT22;1840;48.892;15.312;2023-05-07T01:48:32;7.40;99.90
3648;DHT22;1840;48.892;15.312;2023-05-07T01:51:01;7.50;99.90
3648;DHT22;1840;48.892;15.312;2023-05-07T01:53:35;7.50;99.90
3648;DHT22;1840;48.892;15.312;2023-05-07T01:56:05;7.50;99.90
3648;DHT22;1840;48.892;15.312;2023-05-07T01:58:34;7.50;99.90
3648;DHT22;1840;48.892;15.312;2023-05-07T02:01:02;7.50;99.90
3648;DHT22;1840;48.892;15.312;2023-05-07T02:03:30;7.50;99.90
3648;DHT22;1840;48.892;15.312;2023-05-07T02:05:58;7.50;99.90
3648;DHT22;1840;48.892;15.312;2023-05-07T02:08:26;7.70;99.90
3648;DHT22;1840;48.892;15.312;2023-05-07T02:10:54;7.80;99.90
3648;DHT22;1840;48.892;15.312;2023-05-07T02:13:23;7.80;99.90
3648;DHT22;1840;48.892;15.312;2023-05-07T02:15:51;7.80;99.90
3648;DHT22;1840;48.892;15.312;2023-05-07T02:18:20;7.80;99.90
3648;DHT22;1840;48.892;15.312;2023-05-07T02:20:48;7.70;99.90
3648;DHT22;1840;48.892;15.312;2023-05-07T02:23:16;7.70;99.90
3648;DHT22;1840;48.892;15.312;2023-05-07T02:25:44;7.70;99.90
3648;DHT22;1840;48.892;15.312;2023-05-07T02:28:12;7.70;99.90
3648;DHT22;1840;48.892;15.312;2023-05-07T02:30:42;7.70;99.90
3648;DHT22;1840;48.892;15.312;2023-05-07T02:33:10;7.80;99.90
3648;DHT22;1840;48.892;15.312;2023-05-07T02:35:39;7.80;99.90
3648;DHT22;1840;48.892;15.312;2023-05-07T02:38:07;7.80;99.90
3648;DHT22;1840;48.892;15.312;2023-05-07T02:40:37;7.80;99.90
3648;DHT22;1840;48.892;15.312;2023-05-07T02:43:06;7.80;99.90
3648;DHT22;1840;48.892;15.312;2023-05-07T02:45:34;7.90;99.90
3648;DHT22;1840;48.892;15.312;2023-05-07T02:48:05;7.80;99.90
3648;DHT22;1840;48.892;15.312;2023-05-07T02:50:33;7.80;99.90
3648;DHT22;1840;48.892;15.312;2023-05-07T02:53:01;7.70;99.90
3648;DHT22;1840;48.892;15.312;2023-05-07T02:55:29;7.70;99.90
3648;DHT22;1840;48.892;15.312;2023-05-07T02:57:57;7.80;99.90
3648;DHT22;1840;48.892;15.312;2023-05-07T03:00:25;7.80;99.90
3648;DHT22;1840;48.892;15.312;2023-05-07T03:02:53;7.90;99.90
3648;DHT22;1840;48.892;15.312;2023-05-07T03:05:24;7.90;99.90
3648;DHT22;1840;48.892;15.312;2023-05-07T03:07:51;7.90;99.90
3648;DHT22;1840;48.892;15.312;2023-05-07T03:10:20;7.90;99.90
3648;DHT22;1840;48.892;15.312;2023-05-07T03:12:47;7.90;99.90
3648;DHT22;1840;48.892;15.312;2023-05-07T03:15:16;7.70;99.90
3648;DHT22;1840;48.892;15.312;2023-05-07T03:17:44;7.60;99.90
3648;DHT22;1840;48.892;15.312;2023-05-07T03:20:12;7.60;99.90
3648;DHT22;1840;48.892;15.312;2023-05-07T03:22:42;7.40;99.90
3648;DHT22;1840;48.892;15.312;2023-05-07T03:25:10;7.50;99.90
3648;DHT22;1840;48.892;15.312;2023-05-07T03:27:38;7.50;99.90
3648;DHT22;1840;48.892;15.312;2023-05-07T03:30:07;7.60;99.90
3648;DHT22;1840;48.892;15.312;2023-05-07T03:32:36;7.50;99.90
3648;DHT22;1840;48.892;15.312;2023-05-07T03:35:05;7.50;99.90
3648;DHT22;1840;48.892;15.312;2023-05-07T03:37:33;7.60;99.90
3648;DHT22;1840;48.892;15.312;2023-05-07T03:40:03;7.60;99.90
3648;DHT22;1840;48.892;15.312;2023-05-07T03:42:32;7.60;99.90
3648;DHT22;1840;48.892;15.312;2023-05-07T03:45:00;7.70;99.90
3648;DHT22;1840;48.892;15.312;2023-05-07T03:47:28;7.70;99.90
3648;DHT22;1840;48.892;15.312;2023-05-07T03:49:56;7.70;99.90
3648;DHT22;1840;48.892;15.312;2023-05-07T03:52:24;7.60;99.90
3648;DHT22;1840;48.892;15.312;2023-05-07T03:54:53;7.70;99.90
3648;DHT22;1840;48.892;15.312;2023-05-07T03:57:22;7.50;99.90
3648;DHT22;1840;48.892;15.312;2023-05-07T03:59:51;7.60;99.90
3648;DHT22;1840;48.892;15.312;2023-05-07T04:02:19;7.60;99.90
3648;DHT22;1840;48.892;15.312;2023-05-07T04:04:48;7.60;99.90
3648;DHT22;1840;48.892;15.312;2023-05-07T04:07:17;7.80;99.90
3648;DHT22;1840;48.892;15.312;2023-05-07T04:09:45;7.80;99.90
3648;DHT22;1840;48.892;15.312;2023-05-07T04:12:13;7.90;99.90
3648;DHT22;1840;48.892;15.312;2023-05-07T04:14:42;7.70;99.90
3648;DHT22;1840;48.892;15.312;2023-05-07T04:17:10;7.80;99.90
3648;DHT22;1840;48.892;15.312;2023-05-07T04:19:38;7.80;99.90
3648;DHT22;1840;48.892;15.312;2023-05-07T04:22:06;7.90;99.90
3648;DHT22;1840;48.892;15.312;2023-05-07T04:24:34;8.00;99.90
3648;DHT22;1840;48.892;15.312;2023-05-07T04:27:02;8.10;99.90
3648;DHT22;1840;48.892;15.312;2023-05-07T04:29:31;8.20;99.90
3648;DHT22;1840;48.892;15.312;2023-05-07T04:32:00;8.00;99.90
3648;DHT22;1840;48.892;15.312;2023-05-07T04:34:28;8.00;99.90
3648;DHT22;1840;48.892;15.312;2023-05-07T04:36:59;8.00;99.90
3648;DHT22;1840;48.892;15.312;2023-05-07T04:39:27;8.10;99.90
3648;DHT22;1840;48.892;15.312;2023-05-07T04:41:55;8.10;99.90
3648;DHT22;1840;48.892;15.312;2023-05-07T04:44:23;8.30;99.90
3648;DHT22;1840;48.892;15.312;2023-05-07T04:46:51;8.30;99.90
3648;DHT22;1840;48.892;15.312;2023-05-07T04:49:20;8.20;99.90
3648;DHT22;1840;48.892;15.312;2023-05-07T04:51:49;8.30;99.90
3648;DHT22;1840;48.892;15.312;2023-05-07T04:54:17;8.40;99.90
3648;DHT22;1840;48.892;15.312;2023-05-07T04:56:45;8.40;99.90
3648;DHT22;1840;48.892;15.312;2023-05-07T04:59:13;8.50;99.90
3648;DHT22;1840;48.892;15.312;2023-05-07T05:01:41;8.70;99.90
3648;DHT22;1840;48.892;15.312;2023-05-07T05:04:09;8.60;99.90
3648;DHT22;1840;48.892;15.312;2023-05-07T05:06:39;8.80;99.90
3648;DHT22;1840;48.892;15.312;2023-05-07T05:09:07;8.60;99.90
3648;DHT22;1840;48.892;15.312;2023-05-07T05:11:35;8.60;99.90
3648;DHT22;1840;48.892;15.312;2023-05-07T05:14:03;8.80;99.90
3648;DHT22;1840;48.892;15.312;2023-05-07T05:16:31;8.80;99.90
3648;DHT22;1840;48.892;15.312;2023-05-07T05:18:59;8.90;99.90
3648;DHT22;1840;48.892;15.312;2023-05-07T05:21:27;8.90;99.90
3648;DHT22;1840;48.892;15.312;2023-05-07T05:23:57;8.60;99.90
3648;DHT22;1840;48.892;15.312;2023-05-07T05:26:25;8.70;99.90
3648;DHT22;1840;48.892;15.312;2023-05-07T05:28:53;8.90;99.90
3648;DHT22;1840;48.892;15.312;2023-05-07T05:31:21;8.90;99.90
3648;DHT22;1840;48.892;15.312;2023-05-07T05:33:50;9.00;99.90
3648;DHT22;1840;48.892;15.312;2023-05-07T05:36:18;9.00;99.90
3648;DHT22;1840;48.892;15.312;2023-05-07T05:38:46;8.90;99.90
3648;DHT22;1840;48.892;15.312;2023-05-07T05:41:15;8.90;99.90
3648;DHT22;1840;48.892;15.312;2023-05-07T05:43:43;9.00;99.90
3648;DHT22;1840;48.892;15.312;2023-05-07T05:46:11;9.20;99.90
3648;DHT22;1840;48.892;15.312;2023-05-07T05:48:39;9.20;99.90
3648;DHT22;1840;48.892;15.312;2023-05-07T05:51:07;9.10;99.90
3648;DHT22;1840;48.892;15.312;2023-05-07T05:53:35;9.00;99.90
3648;DHT22;1840;48.892;15.312;2023-05-07T05:56:04;8.90;99.90
3648;DHT22;1840;48.892;15.312;2023-05-07T05:58:33;9.00;99.90
3648;DHT22;1840;48.892;15.312;2023-05-07T06:01:01;9.20;99.90
3648;DHT22;1840;48.892;15.312;2023-05-07T06:03:30;9.40;99.90
3648;DHT22;1840;48.892;15.312;2023-05-07T06:05:59;9.20;99.90
3648;DHT22;1840;48.892;15.312;2023-05-07T06:08:29;9.30;99.90
3648;DHT22;1840;48.892;15.312;2023-05-07T06:10:58;9.20;99.90
3648;DHT22;1840;48.892;15.312;2023-05-07T06:13:26;9.10;99.90
3648;DHT22;1840;48.892;15.312;2023-05-07T06:15:56;9.20;99.90
3648;DHT22;1840;48.892;15.312;2023-05-07T06:18:24;9.60;99.90
3648;DHT22;1840;48.892;15.312;2023-05-07T06:20:53;9.80;99.90
3648;DHT22;1840;48.892;15.312;2023-05-07T06:23:21;9.90;99.90
3648;DHT22;1840;48.892;15.312;2023-05-07T06:25:49;10.10;99.90
3648;DHT22;1840;48.892;15.312;2023-05-07T06:28:18;10.20;99.90
3648;DHT22;1840;48.892;15.312;2023-05-07T06:30:46;10.30;99.90
3648;DHT22;1840;48.892;15.312;2023-05-07T06:33:17;10.20;99.90
3648;DHT22;1840;48.892;15.312;2023-05-07T06:35:46;9.90;99.90
3648;DHT22;1840;48.892;15.312;2023-05-07T06:38:14;9.50;99.90
3648;DHT22;1840;48.892;15.312;2023-05-07T06:40:42;9.10;99.90
3648;DHT22;1840;48.892;15.312;2023-05-07T06:43:10;9.30;99.90
3648;DHT22;1840;48.892;15.312;2023-05-07T06:45:38;9.50;99.90
3648;DHT22;1840;48.892;15.312;2023-05-07T06:48:06;9.40;99.90
3648;DHT22;1840;48.892;15.312;2023-05-07T06:50:35;9.30;99.90
3648;DHT22;1840;48.892;15.312;2023-05-07T06:53:03;9.40;99.90
3648;DHT22;1840;48.892;15.312;2023-05-07T06:55:31;9.30;99.90
3648;DHT22;1840;48.892;15.312;2023-05-07T06:58:00;9.40;99.90
3648;DHT22;1840;48.892;15.312;2023-05-07T07:00:28;9.70;99.90
3648;DHT22;1840;48.892;15.312;2023-05-07T07:02:57;9.90;99.90
3648;DHT22;1840;48.892;15.312;2023-05-07T07:05:26;9.50;99.90
3648;DHT22;1840;48.892;15.312;2023-05-07T07:07:58;9.50;99.90
3648;DHT22;1840;48.892;15.312;2023-05-07T07:10:26;9.10;99.90
3648;DHT22;1840;48.892;15.312;2023-05-07T07:12:54;9.00;99.90
3648;DHT22;1840;48.892;15.312;2023-05-07T07:15:22;9.00;99.90
3648;DHT22;1840;48.892;15.312;2023-05-07T07:17:51;9.30;99.90
3648;DHT22;1840;48.892;15.312;2023-05-07T07:20:19;9.30;99.90
3648;DHT22;1840;48.892;15.312;2023-05-07T07:22:47;9.20;99.90
3648;DHT22;1840;48.892;15.312;2023-05-07T07:25:17;9.30;99.90
3648;DHT22;1840;48.892;15.312;2023-05-07T07:27:45;9.60;99.90
3648;DHT22;1840;48.892;15.312;2023-05-07T07:30:13;9.90;99.90
3648;DHT22;1840;48.892;15.312;2023-05-07T07:32:41;10.10;99.90
3648;DHT22;1840;48.892;15.312;2023-05-07T07:35:09;10.40;99.90
3648;DHT22;1840;48.892;15.312;2023-05-07T07:37:37;10.70;99.90
3648;DHT22;1840;48.892;15.312;2023-05-07T07:40:06;10.80;99.90
3648;DHT22;1840;48.892;15.312;2023-05-07T07:42:36;10.70;99.60
3648;DHT22;1840;48.892;15.312;2023-05-07T07:45:05;10.50;99.90
3648;DHT22;1840;48.892;15.312;2023-05-07T07:47:33;10.40;99.70
3648;DHT22;1840;48.892;15.312;2023-05-07T07:50:01;10.40;99.90
3648;DHT22;1840;48.892;15.312;2023-05-07T07:52:29;10.10;99.90
3648;DHT22;1840;48.892;15.312;2023-05-07T07:54:57;10.20;99.90
3648;DHT22;1840;48.892;15.312;2023-05-07T07:57:25;10.50;99.90
3648;DHT22;1840;48.892;15.312;2023-05-07T07:59:54;10.90;99.90
3648;DHT22;1840;48.892;15.312;2023-05-07T08:02:23;10.80;99.90
3648;DHT22;1840;48.892;15.312;2023-05-07T08:04:51;10.90;99.90
3648;DHT22;1840;48.892;15.312;2023-05-07T08:07:19;10.70;99.20
3648;DHT22;1840;48.892;15.312;2023-05-07T08:09:49;10.70;99.90
3648;DHT22;1840;48.892;15.312;2023-05-07T08:12:17;11.10;99.90
3648;DHT22;1840;48.892;15.312;2023-05-07T08:14:45;11.00;99.40
3648;DHT22;1840;48.892;15.312;2023-05-07T08:17:14;11.00;99.50
3648;DHT22;1840;48.892;15.312;2023-05-07T08:19:43;11.00;99.20
3648;DHT22;1840;48.892;15.312;2023-05-07T08:22:11;11.00;99.20
3648;DHT22;1840;48.892;15.312;2023-05-07T08:24:39;11.30;99.40
3648;DHT22;1840;48.892;15.312;2023-05-07T08:27:07;11.50;99.40
3648;DHT22;1840;48.892;15.312;2023-05-07T08:29:35;11.60;99.10
3648;DHT22;1840;48.892;15.312;2023-05-07T08:32:03;11.50;99.10
3648;DHT22;1840;48.892;15.312;2023-05-07T08:34:33;11.70;99.10
3648;DHT22;1840;48.892;15.312;2023-05-07T08:37:01;11.70;98.90
3648;DHT22;1840;48.892;15.312;2023-05-07T08:39:30;11.90;98.60
3648;DHT22;1840;48.892;15.312;2023-05-07T08:42:00;11.70;98.40
3648;DHT22;1840;48.892;15.312;2023-05-07T08:44:32;11.60;98.70
3648;DHT22;1840;48.892;15.312;2023-05-07T08:47:01;11.40;98.60
3648;DHT22;1840;48.892;15.312;2023-05-07T08:49:29;11.20;99.60
3648;DHT22;1840;48.892;15.312;2023-05-07T08:51:59;11.50;99.30
3648;DHT22;1840;48.892;15.312;2023-05-07T08:54:27;11.70;99.90
3648;DHT22;1840;48.892;15.312;2023-05-07T08:56:56;11.90;99.00
3648;DHT22;1840;48.892;15.312;2023-05-07T08:59:24;11.90;98.60
3648;DHT22;1840;48.892;15.312;2023-05-07T09:01:52;11.80;99.40
3648;DHT22;1840;48.892;15.312;2023-05-07T09:04:20;12.10;99.40
3648;DHT22;1840;48.892;15.312;2023-05-07T09:06:48;12.20;98.80
3648;DHT22;1840;48.892;15.312;2023-05-07T09:09:19;12.80;99.20
3648;DHT22;1840;48.892;15.312;2023-05-07T09:11:51;12.80;98.00
3648;DHT22;1840;48.892;15.312;2023-05-07T09:14:25;12.30;97.70
3648;DHT22;1840;48.892;15.312;2023-05-07T09:16:53;11.90;97.50
3648;DHT22;1840;48.892;15.312;2023-05-07T09:19:22;11.70;98.00
3648;DHT22;1840;48.892;15.312;2023-05-07T09:21:58;11.90;99.00
3648;DHT22;1840;48.892;15.312;2023-05-07T09:24:27;12.40;98.90
3648;DHT22;1840;48.892;15.312;2023-05-07T09:26:58;12.60;98.10
3648;DHT22;1840;48.892;15.312;2023-05-07T09:29:27;13.00;98.30
3648;DHT22;1840;48.892;15.312;2023-05-07T09:31:56;13.30;97.40
3648;DHT22;1840;48.892;15.312;2023-05-07T09:34:24;12.80;97.10
3648;DHT22;1840;48.892;15.312;2023-05-07T09:36:53;13.00;96.50
3648;DHT22;1840;48.892;15.312;2023-05-07T09:39:22;13.00;98.20
3648;DHT22;1840;48.892;15.312;2023-05-07T09:41:52;13.20;98.70
3648;DHT22;1840;48.892;15.312;2023-05-07T09:44:21;13.10;96.50
3648;DHT22;1840;48.892;15.312;2023-05-07T09:46:54;12.80;96.20
3648;DHT22;1840;48.892;15.312;2023-05-07T09:49:23;13.20;97.80
3648;DHT22;1840;48.892;15.312;2023-05-07T09:51:52;13.70;97.30
3648;DHT22;1840;48.892;15.312;2023-05-07T09:54:20;13.90;97.50
3648;DHT22;1840;48.892;15.312;2023-05-07T09:56:49;14.40;96.40
3648;DHT22;1840;48.892;15.312;2023-05-07T09:59:18;14.40;96.50
3648;DHT22;1840;48.892;15.312;2023-05-07T10:01:49;14.30;96.40
3648;DHT22;1840;48.892;15.312;2023-05-07T10:04:20;14.40;97.30
3648;DHT22;1840;48.892;15.312;2023-05-07T10:06:49;14.30;96.00
3648;DHT22;1840;48.892;15.312;2023-05-07T10:09:17;14.70;95.70
3648;DHT22;1840;48.892;15.312;2023-05-07T10:11:46;14.90;95.20
3648;DHT22;1840;48.892;15.312;2023-05-07T10:14:18;14.50;93.90
3648;DHT22;1840;48.892;15.312;2023-05-07T10:16:48;14.40;95.30
3648;DHT22;1840;48.892;15.312;2023-05-07T10:19:16;14.20;95.30
3648;DHT22;1840;48.892;15.312;2023-05-07T10:21:55;14.60;95.60
3648;DHT22;1840;48.892;15.312;2023-05-07T10:24:26;15.00;95.40
3648;DHT22;1840;48.892;15.312;2023-05-07T10:26:56;15.50;95.60
3648;DHT22;1840;48.892;15.312;2023-05-07T10:29:35;16.20;94.00
3648;DHT22;1840;48.892;15.312;2023-05-07T10:32:19;16.00;94.40
3648;DHT22;1840;48.892;15.312;2023-05-07T10:34:54;16.10;93.50
3648;DHT22;1840;48.892;15.312;2023-05-07T10:37:25;16.20;94.40
3648;DHT22;1840;48.892;15.312;2023-05-07T10:39:53;16.10;92.80
3648;DHT22;1840;48.892;15.312;2023-05-07T10:42:22;15.70;94.90
3648;DHT22;1840;48.892;15.312;2023-05-07T10:44:51;16.00;94.20
3648;DHT22;1840;48.892;15.312;2023-05-07T10:47:19;15.40;93.30
3648;DHT22;1840;48.892;15.312;2023-05-07T10:50:22;15.40;94.10
3648;DHT22;1840;48.892;15.312;2023-05-07T10:53:21;15.80;93.70
3648;DHT22;1840;48.892;15.312;2023-05-07T10:56:25;15.90;93.20
3648;DHT22;1840;48.892;15.312;2023-05-07T10:59:32;15.70;93.90
3648;DHT22;1840;48.892;15.312;2023-05-07T11:02:03;15.90;93.60
3648;DHT22;1840;48.892;15.312;2023-05-07T11:04:33;16.10;93.40
3648;DHT22;1840;48.892;15.312;2023-05-07T11:07:24;16.30;91.90
3648;DHT22;1840;48.892;15.312;2023-05-07T11:09:57;15.70;93.70
3648;DHT22;1840;48.892;15.312;2023-05-07T11:12:53;16.10;92.60
3648;DHT22;1840;48.892;15.312;2023-05-07T11:15:41;16.70;93.30
3648;DHT22;1840;48.892;15.312;2023-05-07T11:18:14;17.10;93.00
3648;DHT22;1840;48.892;15.312;2023-05-07T11:20:56;17.20;92.60
3648;DHT22;1840;48.892;15.312;2023-05-07T11:26:47;16.70;92.50
3648;DHT22;1840;48.892;15.312;2023-05-07T11:29:17;16.80;91.60
3648;DHT22;1840;48.892;15.312;2023-05-07T11:31:51;17.10;91.40
3648;DHT22;1840;48.892;15.312;2023-05-07T11:34:25;17.20;92.40
3648;DHT22;1840;48.892;15.312;2023-05-07T11:36:53;17.10;93.10
3648;DHT22;1840;48.892;15.312;2023-05-07T11:39:26;17.50;93.30
3648;DHT22;1840;48.892;15.312;2023-05-07T11:41:54;17.60;92.70
3648;DHT22;1840;48.892;15.312;2023-05-07T11:44:22;17.70;91.90
3648;DHT22;1840;48.892;15.312;2023-05-07T11:46:50;17.30;91.80
3648;DHT22;1840;48.892;15.312;2023-05-07T11:49:18;17.40;92.00
3648;DHT22;1840;48.892;15.312;2023-05-07T11:51:48;17.20;91.70
3648;DHT22;1840;48.892;15.312;2023-05-07T11:54:16;16.70;91.50
3648;DHT22;1840;48.892;15.312;2023-05-07T11:56:45;16.60;91.60
3648;DHT22;1840;48.892;15.312;2023-05-07T11:59:17;16.60;91.60
3648;DHT22;1840;48.892;15.312;2023-05-07T12:01:46;16.60;90.90
3648;DHT22;1840;48.892;15.312;2023-05-07T12:04:19;16.90;91.60
3648;DHT22;1840;48.892;15.312;2023-05-07T12:06:53;17.40;90.90
3648;DHT22;1840;48.892;15.312;2023-05-07T12:09:22;17.70;90.80
3648;DHT22;1840;48.892;15.312;2023-05-07T12:11:51;17.50;91.30
3648;DHT22;1840;48.892;15.312;2023-05-07T12:14:19;16.80;91.60
3648;DHT22;1840;48.892;15.312;2023-05-07T12:16:47;16.60;91.40
3648;DHT22;1840;48.892;15.312;2023-05-07T12:19:16;16.50;90.90
3648;DHT22;1840;48.892;15.312;2023-05-07T12:21:44;16.50;91.50
3648;DHT22;1840;48.892;15.312;2023-05-07T12:24:14;17.00;91.80
3648;DHT22;1840;48.892;15.312;2023-05-07T12:26:43;17.10;91.60
3648;DHT22;1840;48.892;15.312;2023-05-07T12:29:11;17.60;91.50
3648;DHT22;1840;48.892;15.312;2023-05-07T12:31:40;18.30;90.10
3648;DHT22;1840;48.892;15.312;2023-05-07T12:34:10;18.00;91.30
3648;DHT22;1840;48.892;15.312;2023-05-07T12:36:39;18.40;92.40
3648;DHT22;1840;48.892;15.312;2023-05-07T12:39:08;17.90;90.20
3648;DHT22;1840;48.892;15.312;2023-05-07T12:41:52;18.50;89.00
3648;DHT22;1840;48.892;15.312;2023-05-07T12:44:22;18.70;87.60
3648;DHT22;1840;48.892;15.312;2023-05-07T12:46:50;18.80;88.40
3648;DHT22;1840;48.892;15.312;2023-05-07T12:49:19;19.20;86.50
3648;DHT22;1840;48.892;15.312;2023-05-07T12:51:50;19.20;86.80
3648;DHT22;1840;48.892;15.312;2023-05-07T12:54:28;19.00;87.50
3648;DHT22;1840;48.892;15.312;2023-05-07T12:57:02;19.10;86.90
3648;DHT22;1840;48.892;15.312;2023-05-07T12:59:34;19.10;87.00
3648;DHT22;1840;48.892;15.312;2023-05-07T13:02:03;19.10;86.90
3648;DHT22;1840;48.892;15.312;2023-05-07T13:04:31;18.90;86.20
3648;DHT22;1840;48.892;15.312;2023-05-07T13:06:59;18.80;88.40
3648;DHT22;1840;48.892;15.312;2023-05-07T13:09:27;18.70;89.20
3648;DHT22;1840;48.892;15.312;2023-05-07T13:11:55;18.70;88.70
3648;DHT22;1840;48.892;15.312;2023-05-07T13:14:28;18.90;90.60
3648;DHT22;1840;48.892;15.312;2023-05-07T13:16:56;18.40;90.40
3648;DHT22;1840;48.892;15.312;2023-05-07T13:19:24;17.70;90.60
3648;DHT22;1840;48.892;15.312;2023-05-07T13:21:51;17.00;90.70
3648;DHT22;1840;48.892;15.312;2023-05-07T13:24:19;16.80;90.90
3648;DHT22;1840;48.892;15.312;2023-05-07T13:26:47;16.60;91.10
3648;DHT22;1840;48.892;15.312;2023-05-07T13:29:15;17.10;90.80
3648;DHT22;1840;48.892;15.312;2023-05-07T13:31:45;17.40;91.50
3648;DHT22;1840;48.892;15.312;2023-05-07T13:34:15;17.70;89.30
3648;DHT22;1840;48.892;15.312;2023-05-07T13:36:43;17.90;89.60
3648;DHT22;1840;48.892;15.312;2023-05-07T13:39:11;18.10;89.60
3648;DHT22;1840;48.892;15.312;2023-05-07T13:41:39;18.30;89.20
3648;DHT22;1840;48.892;15.312;2023-05-07T13:44:07;18.00;87.50
3648;DHT22;1840;48.892;15.312;2023-05-07T13:46:35;17.80;88.20
3648;DHT22;1840;48.892;15.312;2023-05-07T13:49:04;17.70;89.00
3648;DHT22;1840;48.892;15.312;2023-05-07T13:51:33;18.00;88.20
3648;DHT22;1840;48.892;15.312;2023-05-07T13:54:01;18.10;87.30
3648;DHT22;1840;48.892;15.312;2023-05-07T13:56:29;18.00;87.30
3648;DHT22;1840;48.892;15.312;2023-05-07T13:58:58;17.80;86.40
3648;DHT22;1840;48.892;15.312;2023-05-07T14:01:27;17.70;87.00
3648;DHT22;1840;48.892;15.312;2023-05-07T14:03:55;17.40;89.30
3648;DHT22;1840;48.892;15.312;2023-05-07T14:06:25;17.30;86.70
3648;DHT22;1840;48.892;15.312;2023-05-07T14:08:54;17.20;88.50
3648;DHT22;1840;48.892;15.312;2023-05-07T14:11:24;17.20;90.00
3648;DHT22;1840;48.892;15.312;2023-05-07T14:13:52;17.30;90.10
3648;DHT22;1840;48.892;15.312;2023-05-07T14:16:20;17.10;88.90
3648;DHT22;1840;48.892;15.312;2023-05-07T14:18:48;16.80;89.80
3648;DHT22;1840;48.892;15.312;2023-05-07T14:21:16;16.50;88.70
3648;DHT22;1840;48.892;15.312;2023-05-07T14:23:45;16.50;90.70
3648;DHT22;1840;48.892;15.312;2023-05-07T14:26:13;16.70;90.00
3648;DHT22;1840;48.892;15.312;2023-05-07T14:28:41;17.00;89.90
3648;DHT22;1840;48.892;15.312;2023-05-07T14:31:13;17.10;86.60
3648;DHT22;1840;48.892;15.312;2023-05-07T14:33:41;17.30;87.40
3648;DHT22;1840;48.892;15.312;2023-05-07T14:36:09;17.40;86.90
3648;DHT22;1840;48.892;15.312;2023-05-07T14:38:37;17.40;86.00
3648;DHT22;1840;48.892;15.312;2023-05-07T14:41:06;17.50;86.90
3648;DHT22;1840;48.892;15.312;2023-05-07T14:43:35;17.30;85.40
3648;DHT22;1840;48.892;15.312;2023-05-07T14:46:03;17.40;86.80
3648;DHT22;1840;48.892;15.312;2023-05-07T14:48:31;17.60;87.10
3648;DHT22;1840;48.892;15.312;2023-05-07T14:50:59;17.60;87.40
3648;DHT22;1840;48.892;15.312;2023-05-07T14:53:27;17.80;86.10
3648;DHT22;1840;48.892;15.312;2023-05-07T14:55:55;18.10;87.30
3648;DHT22;1840;48.892;15.312;2023-05-07T14:58:24;18.30;85.50
3648;DHT22;1840;48.892;15.312;2023-05-07T15:00:52;18.40;84.60
3648;DHT22;1840;48.892;15.312;2023-05-07T15:03:20;18.40;84.90
3648;DHT22;1840;48.892;15.312;2023-05-07T15:05:50;18.40;83.30
3648;DHT22;1840;48.892;15.312;2023-05-07T15:08:18;18.40;83.10
3648;DHT22;1840;48.892;15.312;2023-05-07T15:10:46;18.40;83.80
3648;DHT22;1840;48.892;15.312;2023-05-07T15:13:14;18.00;83.30
3648;DHT22;1840;48.892;15.312;2023-05-07T15:15:44;18.10;85.40
3648;DHT22;1840;48.892;15.312;2023-05-07T15:18:12;18.00;83.80
3648;DHT22;1840;48.892;15.312;2023-05-07T15:20:41;17.80;83.40
3648;DHT22;1840;48.892;15.312;2023-05-07T15:23:10;17.40;83.90
3648;DHT22;1840;48.892;15.312;2023-05-07T15:25:39;17.40;84.30
3648;DHT22;1840;48.892;15.312;2023-05-07T15:28:07;17.20;84.50
3648;DHT22;1840;48.892;15.312;2023-05-07T15:30:35;17.00;85.10
3648;DHT22;1840;48.892;15.312;2023-05-07T15:33:04;17.10;86.60
3648;DHT22;1840;48.892;15.312;2023-05-07T15:35:33;17.20;86.70
3648;DHT22;1840;48.892;15.312;2023-05-07T15:38:01;17.10;85.90
3648;DHT22;1840;48.892;15.312;2023-05-07T15:40:30;16.90;85.40
3648;DHT22;1840;48.892;15.312;2023-05-07T15:42:59;17.00;86.30
3648;DHT22;1840;48.892;15.312;2023-05-07T15:45:28;17.10;87.00
3648;DHT22;1840;48.892;15.312;2023-05-07T15:47:56;17.10;87.10
3648;DHT22;1840;48.892;15.312;2023-05-07T15:50:26;17.00;86.20
3648;DHT22;1840;48.892;15.312;2023-05-07T15:52:55;16.90;86.10
3648;DHT22;1840;48.892;15.312;2023-05-07T15:55:24;16.40;89.60
3648;DHT22;1840;48.892;15.312;2023-05-07T15:57:52;15.80;91.00
3648;DHT22;1840;48.892;15.312;2023-05-07T16:00:21;15.60;91.60
3648;DHT22;1840;48.892;15.312;2023-05-07T16:02:49;15.20;91.80
3648;DHT22;1840;48.892;15.312;2023-05-07T16:05:17;14.70;92.30
3648;DHT22;1840;48.892;15.312;2023-05-07T16:07:47;14.40;92.70
3648;DHT22;1840;48.892;15.312;2023-05-07T16:10:15;14.20;92.90